sensor_id;sensor_type;location;lat;lon;timestamp;P1;durP1;ratioP1;P2;durP2;ratioP2
12127;SDS011;6127;57.702;11.904;2023-04-16T00:00:45;0.20;;;0.20;;
12127;SDS011;6127;57.702;11.904;2023-04-16T00:03:12;0.20;;;0.20;;
12127;SDS011;6127;57.702;11.904;2023-04-16T00:05:38;0.28;;;0.28;;
12127;SDS011;6127;57.702;11.904;2023-04-16T00:08:04;0.40;;;0.40;;
12127;SDS011;6127;57.702;11.904;2023-04-16T00:10:30;0.40;;;0.40;;
12127;SDS011;6127;57.702;11.904;2023-04-16T00:12:56;0.40;;;0.40;;
12127;SDS011;6127;57.702;11.904;2023-04-16T00:15:22;0.50;;;0.50;;
12127;SDS011;6127;57.702;11.904;2023-04-16T00:17:48;0.40;;;0.40;;
12127;SDS011;6127;57.702;11.904;2023-04-16T00:20:13;0.40;;;0.40;;
12127;SDS011;6127;57.702;11.904;2023-04-16T00:22:39;0.40;;;0.40;;
12127;SDS011;6127;57.702;11.904;2023-04-16T00:25:05;0.40;;;0.40;;
12127;SDS011;6127;57.702;11.904;2023-04-16T00:27:31;0.30;;;0.30;;
12127;SDS011;6127;57.702;11.904;2023-04-16T00:29:57;0.30;;;0.30;;
12127;SDS011;6127;57.702;11.904;2023-04-16T00:32:23;0.30;;;0.30;;
12127;SDS011;6127;57.702;11.904;2023-04-16T00:34:49;0.30;;;0.30;;
12127;SDS011;6127;57.702;11.904;2023-04-16T00:37:15;0.30;;;0.30;;
12127;SDS011;6127;57.702;11.904;2023-04-16T00:39:41;0.30;;;0.30;;
12127;SDS011;6127;57.702;11.904;2023-04-16T00:42:07;0.30;;;0.30;;
12127;SDS011;6127;57.702;11.904;2023-04-16T00:44:33;0.20;;;0.20;;
12127;SDS011;6127;57.702;11.904;2023-04-16T00:47:00;0.20;;;0.20;;
12127;SDS011;6127;57.702;11.904;2023-04-16T00:49:26;0.22;;;0.22;;
12127;SDS011;6127;57.702;11.904;2023-04-16T00:51:52;0.30;;;0.30;;
12127;SDS011;6127;57.702;11.904;2023-04-16T00:54:18;0.30;;;0.30;;
12127;SDS011;6127;57.702;11.904;2023-04-16T00:56:44;0.30;;;0.30;;
12127;SDS011;6127;57.702;11.904;2023-04-16T00:59:11;0.47;;;0.47;;
12127;SDS011;6127;57.702;11.904;2023-04-16T01:01:37;0.40;;;0.40;;
12127;SDS011;6127;57.702;11.904;2023-04-16T01:04:03;0.40;;;0.40;;
12127;SDS011;6127;57.702;11.904;2023-04-16T01:06:31;0.40;;;0.40;;
12127;SDS011;6127;57.702;11.904;2023-04-16T01:08:57;0.30;;;0.30;;
12127;SDS011;6127;57.702;11.904;2023-04-16T01:11:23;0.40;;;0.40;;
12127;SDS011;6127;57.702;11.904;2023-04-16T01:13:49;0.30;;;0.30;;
12127;SDS011;6127;57.702;11.904;2023-04-16T01:16:15;0.40;;;0.40;;
12127;SDS011;6127;57.702;11.904;2023-04-16T01:18:40;0.30;;;0.30;;
12127;SDS011;6127;57.702;11.904;2023-04-16T01:21:06;0.40;;;0.40;;
12127;SDS011;6127;57.702;11.904;2023-04-16T01:23:32;0.30;;;0.30;;
12127;SDS011;6127;57.702;11.904;2023-04-16T01:25:58;0.40;;;0.40;;
12127;SDS011;6127;57.702;11.904;2023-04-16T01:28:25;0.40;;;0.40;;
12127;SDS011;6127;57.702;11.904;2023-04-16T01:30:51;0.32;;;0.32;;
12127;SDS011;6127;57.702;11.904;2023-04-16T01:33:17;0.40;;;0.40;;
12127;SDS011;6127;57.702;11.904;2023-04-16T01:35:43;0.40;;;0.40;;
12127;SDS011;6127;57.702;11.904;2023-04-16T01:38:09;0.40;;;0.40;;
12127;SDS011;6127;57.702;11.904;2023-04-16T01:40:35;0.40;;;0.40;;
12127;SDS011;6127;57.702;11.904;2023-04-16T01:43:02;0.30;;;0.30;;
12127;SDS011;6127;57.702;11.904;2023-04-16T01:45:30;0.30;;;0.30;;
12127;SDS011;6127;57.702;11.904;2023-04-16T01:47:56;0.30;;;0.30;;
12127;SDS011;6127;57.702;11.904;2023-04-16T01:50:22;0.35;;;0.35;;
12127;SDS011;6127;57.702;11.904;2023-04-16T01:52:48;0.30;;;0.30;;
12127;SDS011;6127;57.702;11.904;2023-04-16T01:55:14;0.30;;;0.30;;
12127;SDS011;6127;57.702;11.904;2023-04-16T01:57:40;0.30;;;0.30;;
12127;SDS011;6127;57.702;11.904;2023-04-16T02:00:06;0.30;;;0.30;;
12127;SDS011;6127;57.702;11.904;2023-04-16T02:02:33;0.35;;;0.35;;
12127;SDS011;6127;57.702;11.904;2023-04-16T02:05:00;0.40;;;0.40;;
12127;SDS011;6127;57.702;11.904;2023-04-16T02:07:26;0.30;;;0.30;;
12127;SDS011;6127;57.702;11.904;2023-04-16T02:09:52;0.40;;;0.40;;
12127;SDS011;6127;57.702;11.904;2023-04-16T02:12:18;0.30;;;0.30;;
12127;SDS011;6127;57.702;11.904;2023-04-16T02:14:44;0.30;;;0.30;;
12127;SDS011;6127;57.702;11.904;2023-04-16T02:17:10;0.30;;;0.30;;
12127;SDS011;6127;57.702;11.904;2023-04-16T02:19:36;0.40;;;0.40;;
12127;SDS011;6127;57.702;11.904;2023-04-16T02:22:02;0.40;;;0.40;;
12127;SDS011;6127;57.702;11.904;2023-04-16T02:24:28;0.40;;;0.40;;
12127;SDS011;6127;57.702;11.904;2023-04-16T02:26:54;0.40;;;0.40;;
12127;SDS011;6127;57.702;11.904;2023-04-16T02:29:20;0.40;;;0.40;;
12127;SDS011;6127;57.702;11.904;2023-04-16T02:31:47;0.40;;;0.40;;
12127;SDS011;6127;57.702;11.904;2023-04-16T02:34:13;0.35;;;0.35;;
12127;SDS011;6127;57.702;11.904;2023-04-16T02:36:39;0.40;;;0.40;;
12127;SDS011;6127;57.702;11.904;2023-04-16T02:39:05;0.40;;;0.40;;
12127;SDS011;6127;57.702;11.904;2023-04-16T02:41:31;0.40;;;0.40;;
12127;SDS011;6127;57.702;11.904;2023-04-16T02:43:57;0.40;;;0.40;;
12127;SDS011;6127;57.702;11.904;2023-04-16T02:46:23;0.40;;;0.40;;
12127;SDS011;6127;57.702;11.904;2023-04-16T02:48:49;0.50;;;0.50;;
12127;SDS011;6127;57.702;11.904;2023-04-16T02:51:15;0.50;;;0.50;;
12127;SDS011;6127;57.702;11.904;2023-04-16T02:53:41;0.50;;;0.50;;
12127;SDS011;6127;57.702;11.904;2023-04-16T02:56:10;0.50;;;0.50;;
12127;SDS011;6127;57.702;11.904;2023-04-16T02:58:36;0.57;;;0.57;;
12127;SDS011;6127;57.702;11.904;2023-04-16T03:01:02;0.50;;;0.50;;
12127;SDS011;6127;57.702;11.904;2023-04-16T03:03:28;0.40;;;0.40;;
12127;SDS011;6127;57.702;11.904;2023-04-16T03:05:54;0.30;;;0.30;;
12127;SDS011;6127;57.702;11.904;2023-04-16T03:08:20;0.22;;;0.22;;
12127;SDS011;6127;57.702;11.904;2023-04-16T03:10:46;0.30;;;0.30;;
12127;SDS011;6127;57.702;11.904;2023-04-16T03:13:12;0.20;;;0.20;;
12127;SDS011;6127;57.702;11.904;2023-04-16T03:15:38;0.22;;;0.22;;
12127;SDS011;6127;57.702;11.904;2023-04-16T03:18:04;0.30;;;0.30;;
12127;SDS011;6127;57.702;11.904;2023-04-16T03:20:30;0.32;;;0.32;;
12127;SDS011;6127;57.702;11.904;2023-04-16T03:22:56;0.30;;;0.30;;
12127;SDS011;6127;57.702;11.904;2023-04-16T03:25:22;0.30;;;0.30;;
12127;SDS011;6127;57.702;11.904;2023-04-16T03:27:48;0.20;;;0.20;;
12127;SDS011;6127;57.702;11.904;2023-04-16T03:30:14;0.30;;;0.30;;
12127;SDS011;6127;57.702;11.904;2023-04-16T03:32:40;0.30;;;0.30;;
12127;SDS011;6127;57.702;11.904;2023-04-16T03:35:07;0.28;;;0.28;;
12127;SDS011;6127;57.702;11.904;2023-04-16T03:37:33;0.30;;;0.30;;
12127;SDS011;6127;57.702;11.904;2023-04-16T03:39:59;0.20;;;0.20;;
12127;SDS011;6127;57.702;11.904;2023-04-16T03:42:26;0.20;;;0.20;;
12127;SDS011;6127;57.702;11.904;2023-04-16T03:44:52;0.30;;;0.30;;
12127;SDS011;6127;57.702;11.904;2023-04-16T03:47:18;0.30;;;0.30;;
12127;SDS011;6127;57.702;11.904;2023-04-16T03:49:44;0.30;;;0.30;;
12127;SDS011;6127;57.702;11.904;2023-04-16T03:52:10;0.30;;;0.30;;
12127;SDS011;6127;57.702;11.904;2023-04-16T03:54:36;0.30;;;0.30;;
12127;SDS011;6127;57.702;11.904;2023-04-16T03:57:02;0.30;;;0.30;;
12127;SDS011;6127;57.702;11.904;2023-04-16T03:59:28;0.40;;;0.40;;
12127;SDS011;6127;57.702;11.904;2023-04-16T04:01:54;0.40;;;0.40;;
12127;SDS011;6127;57.702;11.904;2023-04-16T04:04:20;0.40;;;0.40;;
12127;SDS011;6127;57.702;11.904;2023-04-16T04:06:46;0.40;;;0.40;;
12127;SDS011;6127;57.702;11.904;2023-04-16T04:09:12;0.40;;;0.40;;
12127;SDS011;6127;57.702;11.904;2023-04-16T04:11:39;0.40;;;0.40;;
12127;SDS011;6127;57.702;11.904;2023-04-16T04:14:05;0.40;;;0.40;;
12127;SDS011;6127;57.702;11.904;2023-04-16T04:16:31;0.40;;;0.40;;
12127;SDS011;6127;57.702;11.904;2023-04-16T04:18:57;0.40;;;0.40;;
12127;SDS011;6127;57.702;11.904;2023-04-16T04:21:24;0.40;;;0.40;;
12127;SDS011;6127;57.702;11.904;2023-04-16T04:23:51;0.50;;;0.50;;
12127;SDS011;6127;57.702;11.904;2023-04-16T04:26:17;0.50;;;0.50;;
12127;SDS011;6127;57.702;11.904;2023-04-16T04:28:43;0.50;;;0.50;;
12127;SDS011;6127;57.702;11.904;2023-04-16T04:31:09;0.50;;;0.50;;
12127;SDS011;6127;57.702;11.904;2023-04-16T04:33:35;0.50;;;0.50;;
12127;SDS011;6127;57.702;11.904;2023-04-16T04:36:01;0.50;;;0.50;;
12127;SDS011;6127;57.702;11.904;2023-04-16T04:38:27;0.50;;;0.50;;
12127;SDS011;6127;57.702;11.904;2023-04-16T04:40:54;0.40;;;0.40;;
12127;SDS011;6127;57.702;11.904;2023-04-16T04:43:20;0.38;;;0.38;;
12127;SDS011;6127;57.702;11.904;2023-04-16T04:45:46;0.30;;;0.30;;
12127;SDS011;6127;57.702;11.904;2023-04-16T04:48:13;0.28;;;0.28;;
12127;SDS011;6127;57.702;11.904;2023-04-16T04:50:39;0.22;;;0.22;;
12127;SDS011;6127;57.702;11.904;2023-04-16T04:53:05;0.20;;;0.20;;
12127;SDS011;6127;57.702;11.904;2023-04-16T04:55:35;0.30;;;0.30;;
12127;SDS011;6127;57.702;11.904;2023-04-16T04:58:01;0.20;;;0.20;;
12127;SDS011;6127;57.702;11.904;2023-04-16T05:00:27;0.28;;;0.28;;
12127;SDS011;6127;57.702;11.904;2023-04-16T05:02:53;0.30;;;0.30;;
12127;SDS011;6127;57.702;11.904;2023-04-16T05:05:19;0.30;;;0.30;;
12127;SDS011;6127;57.702;11.904;2023-04-16T05:07:45;0.30;;;0.30;;
12127;SDS011;6127;57.702;11.904;2023-04-16T05:10:11;0.30;;;0.30;;
12127;SDS011;6127;57.702;11.904;2023-04-16T05:12:37;0.38;;;0.38;;
12127;SDS011;6127;57.702;11.904;2023-04-16T05:15:04;0.30;;;0.30;;
12127;SDS011;6127;57.702;11.904;2023-04-16T05:17:30;0.30;;;0.30;;
12127;SDS011;6127;57.702;11.904;2023-04-16T05:19:56;0.30;;;0.30;;
12127;SDS011;6127;57.702;11.904;2023-04-16T05:22:21;0.30;;;0.30;;
12127;SDS011;6127;57.702;11.904;2023-04-16T05:24:47;0.40;;;0.40;;
12127;SDS011;6127;57.702;11.904;2023-04-16T05:27:13;0.40;;;0.40;;
12127;SDS011;6127;57.702;11.904;2023-04-16T05:29:40;0.30;;;0.30;;
12127;SDS011;6127;57.702;11.904;2023-04-16T05:32:06;0.30;;;0.30;;
12127;SDS011;6127;57.702;11.904;2023-04-16T05:34:32;0.40;;;0.40;;
12127;SDS011;6127;57.702;11.904;2023-04-16T05:36:58;0.30;;;0.30;;
12127;SDS011;6127;57.702;11.904;2023-04-16T05:39:24;0.40;;;0.40;;
12127;SDS011;6127;57.702;11.904;2023-04-16T05:41:51;0.40;;;0.40;;
12127;SDS011;6127;57.702;11.904;2023-04-16T05:44:17;0.40;;;0.40;;
12127;SDS011;6127;57.702;11.904;2023-04-16T05:46:42;0.40;;;0.40;;
12127;SDS011;6127;57.702;11.904;2023-04-16T05:49:09;0.50;;;0.50;;
12127;SDS011;6127;57.702;11.904;2023-04-16T05:51:35;0.45;;;0.45;;
12127;SDS011;6127;57.702;11.904;2023-04-16T05:54:01;0.50;;;0.50;;
12127;SDS011;6127;57.702;11.904;2023-04-16T05:56:27;0.50;;;0.50;;
12127;SDS011;6127;57.702;11.904;2023-04-16T05:58:53;0.50;;;0.50;;
12127;SDS011;6127;57.702;11.904;2023-04-16T06:01:19;0.40;;;0.40;;
12127;SDS011;6127;57.702;11.904;2023-04-16T06:03:45;0.40;;;0.40;;
12127;SDS011;6127;57.702;11.904;2023-04-16T06:06:11;0.30;;;0.30;;
12127;SDS011;6127;57.702;11.904;2023-04-16T06:08:37;0.30;;;0.30;;
12127;SDS011;6127;57.702;11.904;2023-04-16T06:11:03;0.30;;;0.30;;
12127;SDS011;6127;57.702;11.904;2023-04-16T06:13:29;0.28;;;0.28;;
12127;SDS011;6127;57.702;11.904;2023-04-16T06:15:55;0.20;;;0.20;;
12127;SDS011;6127;57.702;11.904;2023-04-16T06:18:22;0.20;;;0.20;;
12127;SDS011;6127;57.702;11.904;2023-04-16T06:20:48;0.30;;;0.30;;
12127;SDS011;6127;57.702;11.904;2023-04-16T06:23:14;0.28;;;0.28;;
12127;SDS011;6127;57.702;11.904;2023-04-16T06:25:40;0.30;;;0.30;;
12127;SDS011;6127;57.702;11.904;2023-04-16T06:28:06;0.30;;;0.30;;
12127;SDS011;6127;57.702;11.904;2023-04-16T06:30:32;0.30;;;0.30;;
12127;SDS011;6127;57.702;11.904;2023-04-16T06:32:58;0.30;;;0.30;;
12127;SDS011;6127;57.702;11.904;2023-04-16T06:35:24;0.30;;;0.30;;
12127;SDS011;6127;57.702;11.904;2023-04-16T06:37:50;0.30;;;0.30;;
12127;SDS011;6127;57.702;11.904;2023-04-16T06:40:16;0.30;;;0.30;;
12127;SDS011;6127;57.702;11.904;2023-04-16T06:42:42;0.30;;;0.30;;
12127;SDS011;6127;57.702;11.904;2023-04-16T06:45:08;0.30;;;0.30;;
12127;SDS011;6127;57.702;11.904;2023-04-16T06:47:34;0.30;;;0.30;;
12127;SDS011;6127;57.702;11.904;2023-04-16T06:50:00;0.20;;;0.20;;
12127;SDS011;6127;57.702;11.904;2023-04-16T06:52:26;0.23;;;0.23;;
12127;SDS011;6127;57.702;11.904;2023-04-16T06:54:52;0.30;;;0.30;;
12127;SDS011;6127;57.702;11.904;2023-04-16T06:57:18;0.30;;;0.30;;
12127;SDS011;6127;57.702;11.904;2023-04-16T06:59:44;0.30;;;0.30;;
12127;SDS011;6127;57.702;11.904;2023-04-16T07:02:10;0.30;;;0.30;;
12127;SDS011;6127;57.702;11.904;2023-04-16T07:04:36;0.20;;;0.20;;
12127;SDS011;6127;57.702;11.904;2023-04-16T07:07:02;0.20;;;0.20;;
12127;SDS011;6127;57.702;11.904;2023-04-16T07:09:27;0.20;;;0.20;;
12127;SDS011;6127;57.702;11.904;2023-04-16T07:11:53;0.25;;;0.25;;
12127;SDS011;6127;57.702;11.904;2023-04-16T07:14:19;0.30;;;0.30;;
12127;SDS011;6127;57.702;11.904;2023-04-16T07:16:45;0.30;;;0.30;;
12127;SDS011;6127;57.702;11.904;2023-04-16T07:19:11;0.30;;;0.30;;
12127;SDS011;6127;57.702;11.904;2023-04-16T07:21:37;0.32;;;0.32;;
12127;SDS011;6127;57.702;11.904;2023-04-16T07:24:05;0.40;;;0.40;;
12127;SDS011;6127;57.702;11.904;2023-04-16T07:26:31;0.50;;;0.50;;
12127;SDS011;6127;57.702;11.904;2023-04-16T07:28:57;0.50;;;0.50;;
12127;SDS011;6127;57.702;11.904;2023-04-16T07:31:23;0.50;;;0.50;;
12127;SDS011;6127;57.702;11.904;2023-04-16T07:33:49;0.50;;;0.50;;
12127;SDS011;6127;57.702;11.904;2023-04-16T07:36:15;0.40;;;0.40;;
12127;SDS011;6127;57.702;11.904;2023-04-16T07:38:41;0.40;;;0.40;;
12127;SDS011;6127;57.702;11.904;2023-04-16T07:41:07;0.40;;;0.40;;
12127;SDS011;6127;57.702;11.904;2023-04-16T07:43:33;0.50;;;0.50;;
12127;SDS011;6127;57.702;11.904;2023-04-16T07:45:59;0.40;;;0.40;;
12127;SDS011;6127;57.702;11.904;2023-04-16T07:48:25;0.38;;;0.38;;
12127;SDS011;6127;57.702;11.904;2023-04-16T07:50:51;0.40;;;0.40;;
12127;SDS011;6127;57.702;11.904;2023-04-16T07:53:17;0.30;;;0.30;;
12127;SDS011;6127;57.702;11.904;2023-04-16T07:55:43;0.28;;;0.28;;
12127;SDS011;6127;57.702;11.904;2023-04-16T07:58:10;0.20;;;0.20;;
